Time;durP1;ratioP1;P1;durP2;ratioP2;P2;SDS_P1;SDS_P2;PMS_P1;PMS_P2;Temp;Humidity;BMP_temperature;BMP_pressure;BME280_temperature;BME280_humidity;BME280_pressure;Samples;Min_cycle;Max_cycle;Signal;HPM_P1;HPM_P2
2023/08/13 00:01:14;;;;;;;12.40;3.00;;;15.30;99.90;;;;;;5068690;28;20474;-91
2023/08/13 00:03:39;;;;;;;15.87;3.60;;;15.00;99.90;;;;;;5069503;28;20406;-90
2023/08/13 00:06:05;;;;;;;13.23;3.50;;;15.00;99.90;;;;;;5068387;28;20402;-90
2023/08/13 00:08:30;;;;;;;11.63;3.10;;;15.00;99.90;;;;;;5069727;28;20410;-91
2023/08/13 00:10:56;;;;;;;17.45;3.42;;;15.00;99.90;;;;;;5068676;28;20414;-90
2023/08/13 00:13:24;;;;;;;12.83;3.47;;;15.00;99.90;;;;;;5070151;28;20410;-90
2023/08/13 00:15:50;;;;;;;12.23;3.00;;;15.00;99.90;;;;;;5068804;28;20525;-90
2023/08/13 00:18:16;;;;;;;17.80;3.70;;;15.30;99.90;;;;;;5069224;28;20463;-90
2023/08/13 00:20:42;;;;;;;16.53;3.60;;;15.00;99.90;;;;;;5069115;28;20433;-90
2023/08/13 00:23:07;;;;;;;12.95;3.55;;;15.00;99.90;;;;;;5069091;28;20413;-90
2023/08/13 00:25:33;;;;;;;12.83;3.77;;;15.00;99.90;;;;;;5086315;28;20467;-91
2023/08/13 00:27:58;;;;;;;15.43;3.20;;;15.00;99.90;;;;;;5068647;28;20421;-90
2023/08/13 00:30:24;;;;;;;11.47;2.90;;;15.00;99.90;;;;;;5072147;28;20405;-90
2023/08/13 00:32:50;;;;;;;11.47;3.10;;;15.00;99.90;;;;;;5073013;28;20413;-90
2023/08/13 00:35:15;;;;;;;12.68;3.65;;;15.10;99.90;;;;;;5090319;28;20405;-90
2023/08/13 00:37:41;;;;;;;12.10;3.37;;;14.90;99.90;;;;;;5072732;28;20471;-90
2023/08/13 00:40:07;;;;;;;12.25;2.90;;;14.90;99.90;;;;;;5072900;28;20404;-89
2023/08/13 00:42:33;;;;;;;11.60;3.15;;;14.90;99.90;;;;;;5089667;28;20429;-90
2023/08/13 00:44:59;;;;;;;13.02;2.95;;;14.90;99.90;;;;;;5072266;28;20774;-90
2023/08/13 00:47:25;;;;;;;10.77;2.90;;;14.90;99.90;;;;;;5073697;28;20413;-90
2023/08/13 00:49:51;;;;;;;11.88;3.60;;;14.80;99.90;;;;;;5089128;28;20463;-90
2023/08/13 00:52:18;;;;;;;13.95;3.50;;;14.80;99.90;;;;;;5072835;28;20390;-90
2023/08/13 00:54:44;;;;;;;16.53;3.47;;;14.80;99.90;;;;;;5072482;28;20848;-88
2023/08/13 00:57:10;;;;;;;11.37;3.13;;;14.80;99.90;;;;;;5072508;28;20421;-89
2023/08/13 00:59:37;;;;;;;14.25;3.25;;;14.80;99.90;;;;;;5072750;28;20402;-90
2023/08/13 01:02:03;;;;;;;14.82;3.58;;;14.80;99.90;;;;;;5072319;28;20505;-90
2023/08/13 01:04:29;;;;;;;13.17;3.30;;;15.10;99.90;;;;;;5089692;28;20437;-90
2023/08/13 01:07:02;;;;;;;14.75;3.20;;;14.80;99.90;;;;;;5072106;28;20451;-90
2023/08/13 01:09:28;;;;;;;12.38;3.63;;;14.80;99.90;;;;;;5072919;28;20413;-90
2023/08/13 01:12:37;;;;;;;14.70;3.50;;;14.80;99.90;;;;;;5089159;28;20493;-89
2023/08/13 01:15:20;;;;;;;15.63;3.88;;;14.80;99.90;;;;;;5087989;28;20413;-90
2023/08/13 01:17:49;;;;;;;14.70;3.40;;;14.80;99.90;;;;;;5072660;28;20517;-91
2023/08/13 01:20:15;;;;;;;17.77;3.38;;;14.90;99.90;;;;;;5072097;28;20399;-91
2023/08/13 01:22:50;;;;;;;14.20;3.47;;;14.80;99.90;;;;;;5089268;28;20500;-90
2023/08/13 01:25:17;;;;;;;15.30;3.60;;;14.90;99.90;;;;;;5072207;28;20422;-89
2023/08/13 01:28:08;;;;;;;13.48;3.60;;;14.90;99.90;;;;;;5088748;28;20401;-90
2023/08/13 01:30:43;;;;;;;14.07;3.70;;;14.90;99.90;;;;;;5072145;28;20432;-90
2023/08/13 01:33:16;;;;;;;13.90;3.25;;;14.90;99.90;;;;;;5088520;28;20414;-91
2023/08/13 01:35:43;;;;;;;14.52;3.30;;;14.90;99.90;;;;;;5067835;28;20409;-90
2023/08/13 01:38:10;;;;;;;13.57;3.23;;;14.90;99.90;;;;;;5071809;28;20406;-89
2023/08/13 01:40:35;;;;;;;15.65;3.58;;;14.90;99.90;;;;;;5087993;28;20477;-90
2023/08/13 01:43:01;;;;;;;14.90;3.67;;;14.90;99.90;;;;;;5071226;28;20509;-90
2023/08/13 01:45:27;;;;;;;13.43;3.70;;;15.00;99.90;;;;;;5071488;28;20482;-90
2023/08/13 01:47:52;;;;;;;15.00;3.63;;;14.70;99.90;;;;;;5071468;28;20786;-89
2023/08/13 01:50:19;;;;;;;17.50;3.90;;;15.10;99.90;;;;;;5071056;28;20410;-90
2023/08/13 01:52:45;;;;;;;15.30;3.40;;;15.10;99.90;;;;;;5071931;28;20453;-89
2023/08/13 01:55:11;;;;;;;16.63;3.65;;;15.10;99.90;;;;;;5088246;28;20437;-89
2023/08/13 01:57:36;;;;;;;13.80;3.20;;;15.10;99.90;;;;;;5088434;28;20394;-91
2023/08/13 02:00:02;;;;;;;17.55;4.20;;;15.20;99.90;;;;;;5071099;28;20512;-89
2023/08/13 02:02:28;;;;;;;15.30;3.83;;;15.20;99.90;;;;;;5087340;28;20841;-91
2023/08/13 02:04:53;;;;;;;14.67;4.03;;;15.20;99.90;;;;;;5071751;28;20447;-91
2023/08/13 02:07:19;;;;;;;15.00;4.35;;;15.20;99.90;;;;;;5070816;28;20402;-88
2023/08/13 02:09:44;;;;;;;14.63;4.10;;;15.20;99.90;;;;;;5087970;28;20513;-89
2023/08/13 02:12:10;;;;;;;12.40;3.40;;;15.40;99.90;;;;;;5087991;28;20949;-89
2023/08/13 02:14:36;;;;;;;17.87;4.13;;;15.20;99.90;;;;;;5071415;28;20407;-90
2023/08/13 02:17:01;;;;;;;16.60;4.43;;;15.20;99.90;;;;;;5070929;28;20928;-89
2023/08/13 02:19:27;;;;;;;15.50;4.10;;;15.20;99.90;;;;;;5087701;28;20442;-89
2023/08/13 02:21:52;;;;;;;15.38;4.32;;;15.20;99.90;;;;;;5070736;28;20511;-90
2023/08/13 02:24:18;;;;;;;16.10;4.70;;;15.60;99.90;;;;;;5070393;28;20421;-89
2023/08/13 02:26:44;;;;;;;16.15;3.85;;;15.20;99.90;;;;;;5054650;28;20494;-90
2023/08/13 02:29:09;;;;;;;15.33;4.20;;;15.20;99.90;;;;;;5054004;28;20431;-91
2023/08/13 02:31:35;;;;;;;14.60;4.10;;;15.10;99.90;;;;;;5071138;28;20426;-89
2023/08/13 02:34:01;;;;;;;19.02;4.57;;;15.50;99.90;;;;;;5053609;28;20402;-90
2023/08/13 02:36:26;;;;;;;12.87;3.50;;;14.90;99.90;;;;;;5054567;28;20481;-91
2023/08/13 02:38:53;;;;;;;15.15;4.20;;;15.10;99.90;;;;;;5053878;28;20402;-90
2023/08/13 02:41:18;;;;;;;14.57;3.92;;;15.10;99.90;;;;;;5053423;28;20417;-90
2023/08/13 02:43:54;;;;;;;14.23;4.00;;;15.30;99.90;;;;;;5070806;28;20449;-89
2023/08/13 02:46:21;;;;;;;17.75;4.97;;;15.00;99.90;;;;;;5053892;28;20414;-89
2023/08/13 02:48:46;;;;;;;16.98;4.20;;;15.00;99.90;;;;;;5053879;28;20436;-90
2023/08/13 02:51:14;;;;;;;15.00;4.33;;;15.10;99.90;;;;;;5070430;28;20407;-90
2023/08/13 02:53:40;;;;;;;14.33;4.30;;;15.40;99.90;;;;;;5070113;28;20398;-90
2023/08/13 02:56:06;;;;;;;14.60;4.70;;;15.10;99.90;;;;;;5070210;28;20410;-89
2023/08/13 02:58:32;;;;;;;11.90;4.10;;;14.90;99.90;;;;;;5053236;28;20736;-90
2023/08/13 03:00:58;;;;;;;20.35;4.65;;;14.90;99.90;;;;;;5053529;28;20819;-90
2023/08/13 03:03:23;;;;;;;14.10;4.73;;;15.10;99.90;;;;;;5053346;28;20475;-89
2023/08/13 03:05:49;;;;;;;15.57;4.45;;;15.20;99.90;;;;;;5070695;28;20410;-90
2023/08/13 03:08:14;;;;;;;14.30;4.27;;;15.00;99.90;;;;;;5069899;28;20795;-90
2023/08/13 03:10:40;;;;;;;14.73;4.50;;;15.30;99.90;;;;;;5070320;28;20405;-90
2023/08/13 03:13:06;;;;;;;17.20;4.80;;;15.00;99.90;;;;;;5053015;28;20922;-90
2023/08/13 03:15:31;;;;;;;14.10;4.77;;;15.00;99.90;;;;;;5053241;28;20445;-89
2023/08/13 03:17:57;;;;;;;19.48;4.93;;;15.10;99.90;;;;;;5053494;28;20473;-90
2023/08/13 03:20:23;;;;;;;15.73;4.83;;;15.10;99.90;;;;;;5070075;28;20406;-89
2023/08/13 03:22:48;;;;;;;15.55;4.78;;;15.00;99.90;;;;;;5053561;28;20505;-89
2023/08/13 03:25:14;;;;;;;17.57;4.50;;;15.00;99.90;;;;;;5069348;28;20394;-90
2023/08/13 03:27:39;;;;;;;17.75;5.28;;;15.10;99.90;;;;;;5070080;28;20410;-90
2023/08/13 03:30:06;;;;;;;14.83;4.63;;;15.10;99.90;;;;;;5052974;28;20406;-91
2023/08/13 03:32:31;;;;;;;18.77;4.93;;;15.20;99.90;;;;;;5052822;28;20463;-90
2023/08/13 03:35:00;;;;;;;19.83;4.90;;;15.20;99.90;;;;;;5069930;28;20445;-90
2023/08/13 03:37:26;;;;;;;16.23;4.43;;;15.30;99.90;;;;;;5052831;28;20422;-90
2023/08/13 03:39:51;;;;;;;19.17;4.60;;;15.40;99.90;;;;;;5069380;28;20431;-89
2023/08/13 03:42:17;;;;;;;20.30;5.10;;;15.40;99.90;;;;;;5069471;28;20421;-89
2023/08/13 03:44:43;;;;;;;18.40;5.07;;;15.80;99.90;;;;;;5053545;28;20898;-89
2023/08/13 03:47:08;;;;;;;21.98;5.72;;;15.70;99.90;;;;;;5069446;28;20409;-90
2023/08/13 03:49:35;;;;;;;20.77;5.10;;;15.40;99.90;;;;;;5053123;28;20419;-90
2023/08/13 03:52:01;;;;;;;17.55;4.47;;;15.70;99.90;;;;;;5069314;28;20982;-91
2023/08/13 03:54:26;;;;;;;19.20;5.20;;;15.50;99.90;;;;;;5069497;28;20520;-91
2023/08/13 03:56:52;;;;;;;16.48;4.63;;;15.50;99.90;;;;;;5052636;28;20894;-90
2023/08/13 03:59:18;;;;;;;17.15;4.65;;;15.50;99.90;;;;;;5069359;28;20403;-90
2023/08/13 04:01:44;;;;;;;17.80;5.00;;;15.70;99.90;;;;;;5069757;28;21002;-90
2023/08/13 04:04:09;;;;;;;14.20;4.90;;;15.70;99.90;;;;;;5068398;28;20503;-89
2023/08/13 04:06:35;;;;;;;18.60;4.70;;;15.60;99.90;;;;;;5069632;28;20430;-90
2023/08/13 04:09:01;;;;;;;17.00;5.07;;;15.70;99.90;;;;;;5068877;28;20405;-90
2023/08/13 04:11:28;;;;;;;19.25;4.80;;;15.70;99.90;;;;;;5052930;28;20410;-89
2023/08/13 04:13:53;;;;;;;17.30;4.55;;;15.80;99.90;;;;;;5052512;28;20406;-89
2023/08/13 04:16:19;;;;;;;16.70;5.00;;;15.90;99.90;;;;;;5051842;28;20402;-91
2023/08/13 04:18:45;;;;;;;19.70;4.90;;;16.30;99.90;;;;;;5069301;28;20406;-90
2023/08/13 04:21:11;;;;;;;16.30;4.35;;;16.30;99.90;;;;;;5051801;28;20523;-92
2023/08/13 04:23:36;;;;;;;15.20;4.15;;;16.40;99.90;;;;;;5069777;28;20394;-90
2023/08/13 04:26:02;;;;;;;15.53;4.40;;;16.10;99.90;;;;;;5051876;28;20456;-90
2023/08/13 04:28:28;;;;;;;18.08;5.13;;;16.10;99.90;;;;;;5069645;28;20421;-90
2023/08/13 04:30:54;;;;;;;15.67;4.23;;;16.00;99.90;;;;;;5052252;28;20448;-90
2023/08/13 04:33:20;;;;;;;17.85;4.40;;;16.20;99.90;;;;;;5068865;28;20402;-89
2023/08/13 04:35:46;;;;;;;17.15;5.55;;;16.30;99.90;;;;;;5052421;28;20405;-89
2023/08/13 04:38:11;;;;;;;16.20;4.68;;;16.30;99.90;;;;;;5068837;28;20513;-90
2023/08/13 04:40:37;;;;;;;18.43;4.80;;;16.40;99.90;;;;;;5053002;28;20875;-90
2023/08/13 04:43:02;;;;;;;17.92;4.30;;;16.50;99.90;;;;;;5068931;28;20409;-90
2023/08/13 04:45:28;;;;;;;16.30;4.30;;;16.50;99.90;;;;;;5052124;28;20402;-89
2023/08/13 04:47:54;;;;;;;16.58;5.15;;;16.50;99.90;;;;;;5051772;28;20417;-89
2023/08/13 04:50:19;;;;;;;14.13;4.23;;;16.60;99.90;;;;;;5068522;28;20414;-90
2023/08/13 04:52:45;;;;;;;16.15;4.45;;;16.60;99.90;;;;;;5068714;28;20537;-90
2023/08/13 04:55:10;;;;;;;14.50;4.40;;;16.70;99.90;;;;;;5068537;28;20445;-88
2023/08/13 04:57:36;;;;;;;16.52;4.68;;;16.90;99.90;;;;;;5051862;28;20470;-90
2023/08/13 05:00:03;;;;;;;15.50;4.73;;;16.80;99.90;;;;;;5068144;28;20501;-89
2023/08/13 05:02:29;;;;;;;13.10;3.75;;;16.80;99.90;;;;;;5051934;28;20430;-89
2023/08/13 05:04:54;;;;;;;15.65;4.72;;;16.90;99.90;;;;;;5051727;28;20458;-89
2023/08/13 05:07:21;;;;;;;14.43;4.20;;;17.00;99.90;;;;;;5052212;28;20484;-89
2023/08/13 05:09:48;;;;;;;16.17;4.47;;;17.00;99.90;;;;;;5050943;28;20902;-89
2023/08/13 05:12:13;;;;;;;15.15;3.80;;;17.10;99.90;;;;;;5050134;28;20405;-90
2023/08/13 05:14:39;;;;;;;12.48;3.97;;;17.10;99.90;;;;;;5051678;28;20985;-90
2023/08/13 05:17:17;;;;;;;13.67;3.93;;;17.20;99.90;;;;;;5052842;28;20399;-91
2023/08/13 05:19:43;;;;;;;16.73;4.70;;;17.20;99.90;;;;;;5055852;28;20543;-90
2023/08/13 05:22:08;;;;;;;13.32;3.55;;;17.20;99.90;;;;;;5055133;28;20544;-90
2023/08/13 05:24:37;;;;;;;14.90;3.58;;;17.20;99.90;;;;;;5072219;28;20412;-89
2023/08/13 05:27:03;;;;;;;12.27;3.50;;;17.30;99.90;;;;;;5055165;28;20402;-90
2023/08/13 05:29:29;;;;;;;14.40;3.65;;;17.30;99.90;;;;;;5054106;28;20413;-90
2023/08/13 05:31:54;;;;;;;16.23;3.53;;;17.70;99.90;;;;;;5052958;28;20402;-91
2023/08/13 05:34:20;;;;;;;16.00;3.78;;;17.30;99.90;;;;;;5070742;28;20933;-91
2023/08/13 05:36:46;;;;;;;15.27;4.00;;;17.60;99.90;;;;;;5071293;28;20418;-90
2023/08/13 05:39:11;;;;;;;15.80;3.93;;;17.30;99.90;;;;;;5053917;28;20497;-90
2023/08/13 05:41:37;;;;;;;15.47;3.97;;;17.60;99.90;;;;;;5072031;28;20756;-91
2023/08/13 05:44:03;;;;;;;12.07;3.70;;;17.30;99.90;;;;;;5054883;28;20416;-90
2023/08/13 05:46:28;;;;;;;16.10;4.03;;;17.30;99.90;;;;;;5054846;28;20882;-90
2023/08/13 05:48:54;;;;;;;15.07;4.20;;;17.30;99.90;;;;;;5051435;28;20917;-89
2023/08/13 05:51:20;;;;;;;16.63;4.05;;;18.10;99.90;;;;;;5070530;28;20798;-91
2023/08/13 05:53:46;;;;;;;15.10;3.75;;;17.20;99.90;;;;;;5071813;28;20910;-90
2023/08/13 05:56:12;;;;;;;13.75;3.70;;;17.40;99.90;;;;;;5070435;28;20412;-91
2023/08/13 05:58:37;;;;;;;13.90;4.03;;;17.30;99.90;;;;;;5055224;28;20438;-90
2023/08/13 06:01:03;;;;;;;15.30;4.30;;;17.30;99.90;;;;;;5054150;28;20946;-90
2023/08/13 06:03:29;;;;;;;15.55;4.18;;;17.70;99.90;;;;;;5055224;28;20428;-90
2023/08/13 06:05:55;;;;;;;14.40;3.97;;;17.40;99.90;;;;;;5054521;28;20411;-90
2023/08/13 06:08:21;;;;;;;12.50;4.35;;;17.50;99.90;;;;;;5053935;28;20886;-91
2023/08/13 06:10:46;;;;;;;15.82;3.92;;;17.70;99.90;;;;;;5054513;28;20402;-91
2023/08/13 06:13:12;;;;;;;15.33;4.13;;;18.30;99.90;;;;;;5053542;28;20402;-90
2023/08/13 06:15:38;;;;;;;13.60;3.50;;;18.10;99.90;;;;;;5054197;28;20499;-90
2023/08/13 06:18:04;;;;;;;14.93;3.40;;;18.20;99.90;;;;;;5054321;28;20427;-91
2023/08/13 06:20:31;;;;;;;12.10;3.35;;;18.20;99.90;;;;;;5055310;28;20467;-90
2023/08/13 06:22:56;;;;;;;15.10;3.78;;;18.50;99.90;;;;;;5054287;28;20436;-90
2023/08/13 06:25:22;;;;;;;13.30;3.13;;;18.70;99.90;;;;;;5050745;28;20900;-90
2023/08/13 06:27:48;;;;;;;13.38;2.95;;;18.70;99.90;;;;;;5050727;28;20464;-89
2023/08/13 06:30:13;;;;;;;12.87;3.43;;;18.90;99.90;;;;;;5040530;28;20428;-89
2023/08/13 06:32:39;;;;;;;11.55;2.80;;;19.10;99.90;;;;;;5070842;28;20414;-91
2023/08/13 06:35:05;;;;;;;12.70;2.90;;;19.20;99.90;;;;;;5053546;28;20402;-90
2023/08/13 06:37:31;;;;;;;14.40;3.22;;;19.20;99.90;;;;;;5070890;28;20506;-90
2023/08/13 06:39:56;;;;;;;15.35;3.50;;;19.10;99.90;;;;;;5070704;28;20459;-91
2023/08/13 06:42:23;;;;;;;14.90;3.80;;;19.10;99.90;;;;;;5054272;28;20541;-91
2023/08/13 06:44:49;;;;;;;12.18;3.03;;;18.90;99.90;;;;;;5054135;28;20485;-93
2023/08/13 06:47:14;;;;;;;9.37;3.23;;;18.90;99.90;;;;;;5053512;28;20977;-90
2023/08/13 06:49:40;;;;;;;11.30;3.17;;;19.10;99.90;;;;;;5053314;28;20433;-91
2023/08/13 06:52:06;;;;;;;10.70;3.00;;;19.20;99.90;;;;;;5069777;28;20492;-90
2023/08/13 06:54:32;;;;;;;9.82;2.92;;;19.30;99.90;;;;;;5053740;28;20464;-90
2023/08/13 06:56:58;;;;;;;13.33;3.10;;;19.50;99.90;;;;;;5070142;28;20456;-88
2023/08/13 06:59:24;;;;;;;13.27;3.50;;;19.60;99.90;;;;;;5053643;28;20434;-90
2023/08/13 07:01:50;;;;;;;10.43;2.92;;;20.10;99.90;;;;;;5068835;28;20430;-92
2023/08/13 07:04:16;;;;;;;12.80;3.53;;;19.90;99.90;;;;;;5052968;28;21162;-91
2023/08/13 07:06:42;;;;;;;10.45;3.13;;;20.00;99.90;;;;;;5053389;28;20477;-88
2023/08/13 07:09:07;;;;;;;13.02;3.45;;;20.10;99.90;;;;;;5052576;28;20495;-90
2023/08/13 07:11:33;;;;;;;10.13;3.23;;;20.30;99.90;;;;;;5053872;28;20467;-91
2023/08/13 07:13:59;;;;;;;11.00;3.42;;;20.40;99.90;;;;;;5069585;28;20406;-91
2023/08/13 07:16:25;;;;;;;12.90;3.20;;;20.60;99.90;;;;;;5053630;28;20412;-90
2023/08/13 07:18:50;;;;;;;10.27;3.20;;;20.80;99.90;;;;;;5037063;28;20398;-92
2023/08/13 07:21:16;;;;;;;11.20;3.15;;;20.80;99.90;;;;;;5070019;28;20877;-90
2023/08/13 07:23:42;;;;;;;12.93;3.30;;;20.70;99.90;;;;;;5053313;28;20441;-90
2023/08/13 07:26:08;;;;;;;11.75;3.72;;;20.80;99.90;;;;;;5069026;28;20438;-91
2023/08/13 07:28:38;;;;;;;13.00;3.77;;;21.10;99.90;;;;;;5053059;28;20457;-93
2023/08/13 07:31:04;;;;;;;11.90;3.40;;;21.00;99.90;;;;;;5068834;28;20420;-91
2023/08/13 07:33:30;;;;;;;9.88;3.20;;;20.90;99.90;;;;;;5052159;28;20409;-90
2023/08/13 07:35:58;;;;;;;10.30;3.43;;;20.90;99.90;;;;;;5068386;28;20432;-86
2023/08/13 07:38:23;;;;;;;11.18;3.22;;;21.20;99.90;;;;;;5051748;28;20454;-91
2023/08/13 07:40:49;;;;;;;9.77;3.15;;;20.80;99.90;;;;;;5067959;28;20398;-90
2023/08/13 07:43:14;;;;;;;11.73;3.53;;;21.00;99.90;;;;;;5051622;28;20405;-89
2023/08/13 07:45:40;;;;;;;9.60;3.00;;;21.10;99.90;;;;;;5068528;28;20397;-91
2023/08/13 07:48:06;;;;;;;11.57;3.65;;;21.10;99.90;;;;;;5050559;28;20398;-91
2023/08/13 07:50:31;;;;;;;10.07;2.90;;;21.10;99.90;;;;;;5052199;28;20445;-89
2023/08/13 07:52:57;;;;;;;11.07;3.25;;;21.30;99.90;;;;;;5067571;28;20410;-91
2023/08/13 07:55:22;;;;;;;12.77;2.93;;;21.70;99.90;;;;;;5051804;28;20422;-89
2023/08/13 07:57:48;;;;;;;11.95;3.08;;;21.80;99.90;;;;;;5052189;28;20827;-90
2023/08/13 08:00:16;;;;;;;8.43;2.87;;;21.90;99.90;;;;;;5051783;28;20386;-93
2023/08/13 08:02:42;;;;;;;10.93;2.65;;;21.80;99.90;;;;;;5068715;28;20434;-93
2023/08/13 08:05:09;;;;;;;10.83;2.40;;;21.90;99.90;;;;;;5051389;28;20402;-87
2023/08/13 08:07:35;;;;;;;9.35;2.20;;;22.20;99.90;;;;;;5068463;28;20410;-91
2023/08/13 08:10:00;;;;;;;10.35;2.90;;;22.60;99.90;;;;;;5051704;28;20416;-91
2023/08/13 08:12:26;;;;;;;9.97;2.40;;;22.60;99.90;;;;;;5052693;28;20485;-89
2023/08/13 08:14:52;;;;;;;11.15;2.28;;;22.60;99.90;;;;;;5068450;28;20413;-87
2023/08/13 08:17:17;;;;;;;10.10;1.80;;;22.70;99.90;;;;;;5069085;28;20402;-93
2023/08/13 08:19:43;;;;;;;10.27;2.05;;;22.80;99.90;;;;;;5051638;28;20402;-92
2023/08/13 08:22:09;;;;;;;9.10;2.00;;;22.50;99.90;;;;;;5055029;28;20732;-94
2023/08/13 08:24:34;;;;;;;8.13;1.77;;;22.20;99.90;;;;;;5052385;28;20421;-92
2023/08/13 08:27:00;;;;;;;7.20;1.70;;;21.80;99.90;;;;;;5068119;28;20425;-90
2023/08/13 08:29:26;;;;;;;8.98;2.00;;;21.70;99.90;;;;;;5052605;28;20474;-91
2023/08/13 08:31:52;;;;;;;8.90;2.22;;;21.80;99.90;;;;;;5052400;28;21058;-93
2023/08/13 08:34:18;;;;;;;7.97;2.67;;;21.30;99.90;;;;;;5070124;28;20398;-88
2023/08/13 08:36:43;;;;;;;10.53;2.90;;;21.40;99.90;;;;;;5068801;28;20412;-90
2023/08/13 08:39:09;;;;;;;9.57;2.78;;;21.00;99.90;;;;;;5068975;28;20445;-91
2023/08/13 08:41:36;;;;;;;7.73;2.50;;;21.00;99.90;;;;;;5069261;28;20525;-92
2023/08/13 08:44:02;;;;;;;9.10;2.25;;;20.80;99.90;;;;;;5052058;28;20922;-89
2023/08/13 08:46:29;;;;;;;8.05;2.67;;;20.90;99.90;;;;;;5068841;28;20786;-92
2023/08/13 08:48:56;;;;;;;8.93;2.60;;;21.00;99.90;;;;;;5051485;28;20466;-92
2023/08/13 08:51:22;;;;;;;7.00;2.17;;;21.50;99.90;;;;;;5054425;28;20417;-91
2023/08/13 08:53:50;;;;;;;9.30;2.08;;;21.80;99.90;;;;;;5054948;28;20397;-90
2023/08/13 08:56:16;;;;;;;9.38;2.00;;;22.20;99.90;;;;;;5072225;28;20394;-91
2023/08/13 08:58:41;;;;;;;9.57;1.70;;;22.30;99.90;;;;;;5055712;28;20405;-93
2023/08/13 09:01:07;;;;;;;7.78;1.80;;;22.30;99.90;;;;;;5056158;28;20410;-93
2023/08/13 09:03:33;;;;;;;7.43;1.47;;;22.20;99.90;;;;;;5056537;28;20386;-92
2023/08/13 09:05:58;;;;;;;8.35;1.55;;;22.00;99.90;;;;;;5054864;28;20406;-91
2023/08/13 09:08:25;;;;;;;6.83;1.00;;;22.00;99.90;;;;;;5072922;28;20405;-90
2023/08/13 09:10:51;;;;;;;6.53;1.42;;;22.20;99.90;;;;;;5055037;28;20744;-89
2023/08/13 09:13:16;;;;;;;6.72;1.08;;;22.50;99.90;;;;;;5056337;28;20471;-89
2023/08/13 09:15:48;;;;;;;6.55;1.08;;;22.50;99.90;;;;;;5069156;28;20409;-91
2023/08/13 09:18:14;;;;;;;9.45;1.70;;;22.70;99.90;;;;;;5055522;28;20906;-92
2023/08/13 09:20:45;;;;;;;9.40;1.25;;;22.80;99.90;;;;;;5055006;28;20452;-91
2023/08/13 09:23:10;;;;;;;8.07;1.00;;;23.20;99.90;;;;;;5055407;28;20424;-92
2023/08/13 09:25:37;;;;;;;7.20;1.52;;;23.40;99.90;;;;;;5071673;28;20402;-90
2023/08/13 09:28:03;;;;;;;7.30;1.40;;;23.40;99.90;;;;;;5068224;28;20402;-91
2023/08/13 09:30:32;;;;;;;7.20;1.35;;;23.30;99.90;;;;;;5054993;28;20443;-93
2023/08/13 09:33:00;;;;;;;6.87;1.20;;;23.30;99.90;;;;;;5054523;28;20452;-92
2023/08/13 09:35:26;;;;;;;8.40;1.10;;;23.30;99.90;;;;;;5054210;28;20455;-89
2023/08/13 09:37:53;;;;;;;6.13;0.80;;;23.40;99.90;;;;;;5071688;28;20775;-92
2023/08/13 09:40:18;;;;;;;9.57;1.25;;;23.80;99.90;;;;;;5070494;28;20447;-87
2023/08/13 09:42:46;;;;;;;8.07;1.10;;;23.80;99.00;;;;;;5054555;28;20418;-90
2023/08/13 09:45:16;;;;;;;7.43;1.52;;;23.90;98.80;;;;;;5054157;28;20405;-89
2023/08/13 09:47:45;;;;;;;6.55;1.17;;;24.00;99.80;;;;;;5071627;28;20413;-91
2023/08/13 09:50:12;;;;;;;5.60;0.90;;;23.80;97.50;;;;;;5053619;28;20406;-90
2023/08/13 09:52:42;;;;;;;7.63;1.20;;;23.80;96.10;;;;;;5055079;28;20410;-91
2023/08/13 09:55:12;;;;;;;5.22;0.95;;;23.90;99.90;;;;;;5054846;28;20490;-93
2023/08/13 09:57:41;;;;;;;6.70;1.03;;;23.90;99.90;;;;;;5070986;28;20410;-90
2023/08/13 10:00:08;;;;;;;7.05;1.10;;;23.80;97.10;;;;;;5054078;28;20406;-91
2023/08/13 10:02:35;;;;;;;5.40;1.02;;;24.00;99.60;;;;;;5053596;28;20850;-94
2023/08/13 10:05:03;;;;;;;4.85;0.80;;;24.00;99.90;;;;;;5071634;28;20432;-89
2023/08/13 10:07:28;;;;;;;7.50;1.17;;;24.50;99.90;;;;;;5054105;28;20774;-90
2023/08/13 10:09:54;;;;;;;6.82;1.00;;;24.20;95.40;;;;;;5071215;28;20409;-91
2023/08/13 10:12:22;;;;;;;6.47;1.10;;;24.30;95.30;;;;;;5054440;28;20429;-89
2023/08/13 10:14:48;;;;;;;5.80;0.90;;;24.20;96.30;;;;;;5053682;28;20410;-91
2023/08/13 10:17:18;;;;;;;6.22;1.10;;;24.30;95.10;;;;;;5054885;28;20438;-89
2023/08/13 10:19:49;;;;;;;7.22;1.40;;;24.50;91.80;;;;;;5054364;28;20410;-89
2023/08/13 10:22:22;;;;;;;6.70;1.17;;;24.60;89.90;;;;;;5053976;28;20490;-87
2023/08/13 10:24:48;;;;;;;7.00;1.17;;;24.50;93.50;;;;;;5070474;28;20401;-92
2023/08/13 10:27:14;;;;;;;7.00;1.15;;;24.70;94.50;;;;;;5053813;28;20396;-93
2023/08/13 10:29:43;;;;;;;5.75;1.00;;;25.00;92.70;;;;;;5054327;28;20406;-93
2023/08/13 10:32:14;;;;;;;6.28;1.10;;;25.00;81.50;;;;;;5053632;28;20835;-90
2023/08/13 10:34:50;;;;;;;7.72;1.20;;;25.10;91.70;;;;;;5054695;28;20461;-94
2023/08/13 10:37:23;;;;;;;5.43;1.00;;;25.10;80.80;;;;;;5070594;28;20410;-88
2023/08/13 10:39:54;;;;;;;7.00;1.25;;;24.90;88.70;;;;;;5070747;28;20764;-91
2023/08/13 10:42:38;;;;;;;6.57;1.20;;;24.60;89.20;;;;;;5053712;28;20424;-92
2023/08/13 10:45:05;;;;;;;5.35;1.15;;;24.60;92.90;;;;;;5053407;28;20410;-92
2023/08/13 10:47:54;;;;;;;7.85;1.58;;;24.20;92.30;;;;;;5070542;28;20424;-92
2023/08/13 10:50:22;;;;;;;8.13;1.40;;;24.10;91.80;;;;;;5069853;28;20422;-90
2023/08/13 10:52:52;;;;;;;6.22;1.20;;;24.00;92.70;;;;;;5054440;28;20438;-89
2023/08/13 10:55:22;;;;;;;6.95;1.00;;;24.00;91.30;;;;;;5070597;28;20505;-90
2023/08/13 10:57:50;;;;;;;4.95;1.13;;;24.40;96.30;;;;;;5053565;28;20985;-89
2023/08/13 11:00:16;;;;;;;6.10;0.70;;;24.70;86.30;;;;;;5070357;28;20434;-91
2023/08/13 11:02:44;;;;;;;5.57;0.90;;;24.80;87.10;;;;;;5052779;28;20456;-92
2023/08/13 11:05:10;;;;;;;5.85;1.00;;;24.90;90.20;;;;;;5071344;28;20398;-94
2023/08/13 11:07:36;;;;;;;2.97;0.50;;;24.90;86.10;;;;;;5053167;28;20426;-89
2023/08/13 11:10:03;;;;;;;4.25;0.80;;;24.90;79.40;;;;;;5069718;28;20406;-88
2023/08/13 11:12:30;;;;;;;4.13;0.90;;;24.90;83.30;;;;;;5069472;28;20434;-90
2023/08/13 11:14:59;;;;;;;5.32;0.80;;;24.90;80.70;;;;;;5069155;28;20402;-89
2023/08/13 11:17:25;;;;;;;5.65;0.80;;;24.70;85.50;;;;;;5052087;28;20410;-87
2023/08/13 11:19:55;;;;;;;5.70;0.97;;;24.40;85.40;;;;;;5065548;28;20427;-89
2023/08/13 11:22:23;;;;;;;5.00;1.30;;;24.10;94.20;;;;;;5039018;28;20539;-88
2023/08/13 11:24:49;;;;;;;6.17;1.30;;;23.80;95.90;;;;;;5044302;28;20920;-87
2023/08/13 11:27:14;;;;;;;5.70;1.27;;;23.60;97.20;;;;;;5037401;28;20427;-88
2023/08/13 11:29:40;;;;;;;4.87;1.60;;;23.40;98.20;;;;;;5034507;28;20508;-88
2023/08/13 11:32:05;;;;;;;4.32;1.27;;;23.50;96.90;;;;;;5040922;28;21020;-88
2023/08/13 11:34:31;;;;;;;5.33;1.50;;;23.40;99.90;;;;;;5068408;28;20406;-87
2023/08/13 11:36:57;;;;;;;4.32;1.52;;;23.30;98.30;;;;;;5050551;28;20394;-88
2023/08/13 11:39:23;;;;;;;4.57;1.33;;;23.30;99.90;;;;;;5030852;28;20510;-86
2023/08/13 11:41:51;;;;;;;3.93;1.40;;;23.50;99.90;;;;;;5050052;28;20930;-85
2023/08/13 11:44:19;;;;;;;4.18;1.30;;;23.30;99.90;;;;;;5032737;28;20430;-87
2023/08/13 11:46:56;;;;;;;4.82;1.23;;;23.60;96.30;;;;;;5060343;28;20408;-88
2023/08/13 11:49:22;;;;;;;4.78;1.40;;;23.40;92.50;;;;;;5053181;28;20507;-90
2023/08/13 11:51:49;;;;;;;5.00;1.30;;;23.50;95.50;;;;;;5035332;28;20767;-87
2023/08/13 11:54:17;;;;;;;5.95;1.10;;;23.30;93.40;;;;;;5046637;28;20421;-89
2023/08/13 11:56:47;;;;;;;4.10;1.00;;;23.60;97.30;;;;;;5053875;28;21985;-88
2023/08/13 11:59:13;;;;;;;5.25;1.25;;;23.00;95.30;;;;;;5040960;28;20519;-87
2023/08/13 12:01:38;;;;;;;4.37;1.00;;;23.00;98.60;;;;;;5054529;28;20447;-88
2023/08/13 12:04:05;;;;;;;4.47;1.08;;;23.10;99.90;;;;;;5031221;28;20421;-87
2023/08/13 12:06:34;;;;;;;3.83;0.80;;;23.20;99.90;;;;;;5034492;28;20434;-89
2023/08/13 12:08:59;;;;;;;5.60;0.98;;;23.20;96.00;;;;;;5038027;28;20417;-87
2023/08/13 12:11:25;;;;;;;4.85;1.00;;;23.60;99.60;;;;;;5054916;28;20871;-89
2023/08/13 12:13:51;;;;;;;4.70;0.90;;;23.80;99.90;;;;;;5039284;28;20434;-87
2023/08/13 12:16:16;;;;;;;3.88;0.90;;;24.00;93.30;;;;;;5047595;28;20427;-88
2023/08/13 12:18:42;;;;;;;3.47;0.77;;;24.20;99.50;;;;;;5036336;28;20423;-88
2023/08/13 12:21:08;;;;;;;4.65;0.68;;;24.70;94.80;;;;;;5041901;28;20434;-88
2023/08/13 12:23:33;;;;;;;4.30;0.60;;;24.60;91.10;;;;;;5058336;28;20407;-90
2023/08/13 12:26:01;;;;;;;4.03;0.60;;;24.70;84.70;;;;;;5055407;28;20480;-90
2023/08/13 12:28:28;;;;;;;3.50;0.57;;;24.60;86.90;;;;;;5054171;28;20424;-87
2023/08/13 12:30:53;;;;;;;4.10;0.80;;;24.70;79.60;;;;;;5040655;28;20427;-90
2023/08/13 12:33:19;;;;;;;2.83;0.52;;;25.00;80.00;;;;;;5042730;28;21004;-86
2023/08/13 12:35:45;;;;;;;3.90;0.80;;;25.00;78.50;;;;;;5042943;28;20427;-89
2023/08/13 12:38:10;;;;;;;3.15;0.50;;;25.20;77.50;;;;;;5041515;28;20525;-86